Fort Resolution, Canada
Current Conditions -  °F | °C
As of 12:00 AM on Friday 19 Dec 2014 (Local Time) from CYHY Reporting Station
Few Clouds Few Clouds  
Wind Chill: -6°   Ceiling: Unl
Heat Index: -6°   Visibility: 15mi
Dew Point: -11°   Wind: 3mph
Humidity: 77%   Direction: 90°E
Pressure: 29.81"   Gusts: NA
Location:  61.17°N, 113.68°W
Report Text: CYHY 190700Z 09003KT 15SM FEW030 M21/M24 A2981 RMK SC2 SLP116
Loading
Personal Weather Stations






























Interactive Weather Map New forecast layout! Learn more

10-Day Weather Forecast

Advertisements
Track Severe Weather on mobile